Time;durP1;ratioP1;P1;durP2;ratioP2;P2;SDS_P1;SDS_P2;PMS_P1;PMS_P2;Temp;Humidity;BMP_temperature;BMP_pressure;BME280_temperature;BME280_humidity;BME280_pressure;Samples;Min_cycle;Max_cycle;Signal;HPM_P1;HPM_P2
2021/05/09 00:02:11;;;;;;;10.15;5.75;;;;;;;7.23;63.95;100978.41;5037913;28;20029;-61
2021/05/09 00:04:36;;;;;;;14.05;5.63;;;;;;;7.22;63.49;100976.81;5038190;28;20025;-61
2021/05/09 00:07:02;;;;;;;11.50;6.40;;;;;;;7.19;63.78;100976.72;5036495;28;20087;-60
2021/05/09 00:09:28;;;;;;;9.30;5.50;;;;;;;7.15;64.23;100979.44;5037692;28;20027;-61
2021/05/09 00:11:53;;;;;;;10.65;6.70;;;;;;;7.10;64.03;100974.94;5038238;28;20021;-60
2021/05/09 00:14:18;;;;;;;11.88;6.13;;;;;;;7.06;63.75;100985.22;5020659;28;20044;-61
2021/05/09 00:16:44;;;;;;;12.73;6.55;;;;;;;7.04;63.49;100976.41;5037784;28;20021;-61
2021/05/09 00:19:09;;;;;;;14.52;6.35;;;;;;;7.04;63.87;100979.19;5038094;28;20314;-61
2021/05/09 00:21:35;;;;;;;11.50;6.15;;;;;;;7.04;63.67;100979.19;5037763;28;20384;-60
2021/05/09 00:24:00;;;;;;;13.80;7.50;;;;;;;7.02;64.26;100977.94;5037760;28;20025;-60
2021/05/09 00:26:26;;;;;;;13.57;6.38;;;;;;;7.00;64.00;100981.09;5037638;28;20044;-60
2021/05/09 00:28:51;;;;;;;12.13;6.47;;;;;;;6.98;63.95;100977.84;5037954;28;20032;-60
2021/05/09 00:31:17;;;;;;;11.63;6.38;;;;;;;6.95;64.16;100973.00;5037971;28;20409;-60
2021/05/09 00:33:42;;;;;;;13.80;7.15;;;;;;;6.92;64.04;100968.16;5037297;28;20045;-60
2021/05/09 00:36:07;;;;;;;13.65;6.15;;;;;;;6.92;64.26;100956.97;5037848;28;20029;-61
2021/05/09 00:38:33;;;;;;;11.25;6.40;;;;;;;6.92;64.01;100950.56;5036768;28;20017;-60
2021/05/09 00:40:58;;;;;;;11.93;6.40;;;;;;;6.92;63.33;100948.56;5036696;28;20160;-61
2021/05/09 00:43:23;;;;;;;13.63;6.65;;;;;;;6.89;63.42;100954.91;5036839;28;20029;-60
2021/05/09 00:45:49;;;;;;;12.45;7.03;;;;;;;6.85;63.54;100956.81;5024397;28;20336;-61
2021/05/09 00:48:16;;;;;;;12.68;6.20;;;;;;;6.80;63.51;100965.44;5037681;28;20021;-60
2021/05/09 00:50:42;;;;;;;15.20;6.88;;;;;;;6.78;63.69;100973.38;5037258;28;20021;-61
2021/05/09 00:53:10;;;;;;;12.25;6.78;;;;;;;6.74;63.77;100972.50;5037523;28;20428;-60
2021/05/09 00:55:37;;;;;;;12.73;6.30;;;;;;;6.72;63.63;100975.66;5037046;28;20049;-61
2021/05/09 00:58:03;;;;;;;11.75;6.55;;;;;;;6.69;64.08;100958.81;5037123;28;20041;-60
2021/05/09 01:00:29;;;;;;;12.68;6.65;;;;;;;6.67;64.09;100969.53;5037513;28;20144;-60
2021/05/09 01:02:55;;;;;;;11.25;6.72;;;;;;;6.66;64.43;100973.50;5037192;28;20029;-60
2021/05/09 01:05:20;;;;;;;13.40;7.53;;;;;;;6.70;64.19;100982.78;5036879;28;20093;-60
2021/05/09 01:07:46;;;;;;;13.00;6.97;;;;;;;6.70;63.79;100982.78;5019489;28;20029;-61
2021/05/09 01:10:14;;;;;;;11.60;7.30;;;;;;;6.67;63.67;100977.91;5037170;28;20424;-60
2021/05/09 01:12:39;;;;;;;12.80;7.35;;;;;;;6.66;64.14;100981.88;5037132;28;20100;-60
2021/05/09 01:15:07;;;;;;;14.93;7.82;;;;;;;6.65;64.32;100980.25;5037102;28;20105;-60
2021/05/09 01:17:32;;;;;;;12.50;7.03;;;;;;;6.65;64.61;100975.47;5036907;28;20022;-60
2021/05/09 01:20:00;;;;;;;11.48;6.97;;;;;;;6.61;64.45;100971.00;5036576;28;20028;-60
2021/05/09 01:22:25;;;;;;;10.55;6.22;;;;;;;6.56;64.89;100971.25;5037214;28;20052;-60
2021/05/09 01:24:50;;;;;;;12.68;7.25;;;;;;;6.49;64.77;100975.47;5036594;28;20134;-60
2021/05/09 01:27:16;;;;;;;14.38;7.20;;;;;;;6.45;65.02;100976.56;5036732;28;20029;-60
2021/05/09 01:29:41;;;;;;;15.70;7.40;;;;;;;6.41;65.22;100964.50;5036648;28;20021;-60
2021/05/09 01:32:07;;;;;;;14.57;7.78;;;;;;;6.37;65.14;100967.22;5036625;28;20033;-60
2021/05/09 01:34:36;;;;;;;12.98;7.00;;;;;;;6.30;65.35;100955.03;5036133;28;20021;-60
2021/05/09 01:37:04;;;;;;;13.07;7.18;;;;;;;6.28;65.10;100955.38;5036481;28;20072;-60
2021/05/09 01:39:30;;;;;;;16.33;7.75;;;;;;;6.27;65.31;100953.78;5036450;28;20036;-60
2021/05/09 01:41:56;;;;;;;12.60;7.05;;;;;;;6.24;65.32;100948.91;5036224;28;20026;-61
2021/05/09 01:44:23;;;;;;;12.20;6.88;;;;;;;6.20;65.38;100951.63;5036447;28;20554;-60
2021/05/09 01:46:48;;;;;;;11.75;6.50;;;;;;;6.20;65.07;100953.59;5036235;28;20364;-60
2021/05/09 01:49:13;;;;;;;15.75;6.70;;;;;;;6.21;65.00;100958.00;5036517;28;20018;-60
2021/05/09 01:51:39;;;;;;;11.57;6.45;;;;;;;6.17;65.60;100965.47;5035891;28;20029;-60
2021/05/09 01:54:04;;;;;;;13.23;6.60;;;;;;;6.15;65.42;100962.25;5035971;28;20021;-60
2021/05/09 01:56:29;;;;;;;13.80;7.07;;;;;;;6.15;65.51;100965.03;5036074;28;20088;-60
2021/05/09 01:58:55;;;;;;;12.55;7.05;;;;;;;6.16;65.62;100967.47;5036123;28;20124;-61
2021/05/09 02:01:20;;;;;;;14.80;6.97;;;;;;;6.12;65.75;100963.78;5036124;28;20025;-60
2021/05/09 02:03:45;;;;;;;12.75;6.80;;;;;;;6.10;65.69;100962.50;5034663;28;20309;-61
2021/05/09 02:06:10;;;;;;;12.00;6.50;;;;;;;6.06;65.98;100965.22;5035292;28;20021;-60
2021/05/09 02:08:36;;;;;;;10.77;6.50;;;;;;;6.01;65.75;100964.63;5036046;28;20025;-60
2021/05/09 02:11:01;;;;;;;12.25;7.32;;;;;;;5.99;66.42;100966.97;5036055;28;20480;-60
2021/05/09 02:13:26;;;;;;;12.07;6.53;;;;;;;5.98;66.44;100962.56;5036308;28;20356;-60
2021/05/09 02:15:52;;;;;;;13.88;6.28;;;;;;;5.98;66.47;100962.56;5035727;28;20413;-60
2021/05/09 02:18:17;;;;;;;12.50;6.80;;;;;;;5.94;66.87;100956.91;5035468;28;20068;-60
2021/05/09 02:20:43;;;;;;;13.60;6.15;;;;;;;5.93;66.55;100971.22;5035709;28;20037;-60
2021/05/09 02:23:08;;;;;;;14.68;7.15;;;;;;;5.91;67.01;100970.75;5034589;28;20018;-60
2021/05/09 02:25:33;;;;;;;13.70;6.55;;;;;;;5.87;67.18;100970.63;5035709;28;20021;-60
2021/05/09 02:27:59;;;;;;;14.55;7.35;;;;;;;5.82;66.85;100968.91;5035708;28;20032;-60
2021/05/09 02:30:25;;;;;;;12.38;7.15;;;;;;;5.79;67.18;100972.44;5033718;28;20043;-60
2021/05/09 02:32:50;;;;;;;13.25;7.03;;;;;;;5.77;66.80;100974.75;5035181;28;20108;-60
2021/05/09 02:35:16;;;;;;;14.48;6.75;;;;;;;5.74;66.60;100964.28;5021636;28;20104;-60
2021/05/09 02:37:41;;;;;;;15.95;7.68;;;;;;;5.71;66.63;100976.16;5035360;28;20025;-62
2021/05/09 02:40:07;;;;;;;12.40;7.10;;;;;;;5.69;66.58;100978.50;5035607;28;20022;-60
2021/05/09 02:42:33;;;;;;;15.38;7.40;;;;;;;5.66;66.74;100990.38;5035372;28;20037;-60
2021/05/09 02:44:58;;;;;;;14.98;7.47;;;;;;;5.67;66.67;100988.38;5035502;28;20022;-60
2021/05/09 02:47:30;;;;;;;16.80;7.45;;;;;;;5.65;66.54;100980.38;5035014;28;20032;-60
2021/05/09 02:49:57;;;;;;;15.43;8.00;;;;;;;5.63;66.96;100985.50;5035641;28;20013;-60
2021/05/09 02:52:22;;;;;;;16.75;7.53;;;;;;;5.61;67.02;100987.84;5035774;28;20021;-60
2021/05/09 02:54:47;;;;;;;12.27;6.78;;;;;;;5.60;66.82;100989.00;5034897;28;20356;-61
2021/05/09 02:57:13;;;;;;;15.45;7.72;;;;;;;5.57;66.85;100990.53;5035480;28;20148;-60
2021/05/09 02:59:38;;;;;;;16.27;7.47;;;;;;;5.55;67.17;100992.84;5035175;28;20112;-60
2021/05/09 03:02:03;;;;;;;13.60;7.72;;;;;;;5.55;66.94;100997.63;5035025;28;20087;-60
2021/05/09 03:04:29;;;;;;;20.55;8.13;;;;;;;5.54;67.27;100994.03;5039273;28;20029;-60
2021/05/09 03:06:54;;;;;;;16.08;7.95;;;;;;;5.55;66.66;101011.56;5039304;28;20464;-60
2021/05/09 03:09:19;;;;;;;16.35;7.68;;;;;;;5.54;66.95;100998.78;5039561;28;20021;-60
2021/05/09 03:11:44;;;;;;;15.35;8.30;;;;;;;5.54;67.11;101002.41;5039082;28;20025;-60
2021/05/09 03:14:10;;;;;;;15.20;7.88;;;;;;;5.54;66.66;101004.38;5039441;28;20131;-60
2021/05/09 03:16:35;;;;;;;16.73;7.78;;;;;;;5.51;66.97;101011.47;5038975;28;20017;-60
2021/05/09 03:19:00;;;;;;;17.95;7.57;;;;;;;5.51;66.91;101005.91;5038824;28;20312;-60
2021/05/09 03:21:26;;;;;;;10.77;6.43;;;;;;;5.53;66.29;101002.75;5039242;28;20409;-60
2021/05/09 03:23:51;;;;;;;13.63;6.93;;;;;;;5.54;66.52;101004.38;5038866;28;20048;-60
2021/05/09 03:26:16;;;;;;;15.63;8.02;;;;;;;5.54;66.07;100998.78;5039213;28;20059;-60
2021/05/09 03:28:42;;;;;;;15.75;7.22;;;;;;;5.53;66.78;101011.13;5038850;28;20022;-60
2021/05/09 03:31:07;;;;;;;15.60;7.80;;;;;;;5.55;66.70;101003.19;5038963;28;20309;-60
2021/05/09 03:33:32;;;;;;;15.40;7.63;;;;;;;5.54;66.39;101005.19;5038771;28;20413;-61
2021/05/09 03:35:58;;;;;;;17.45;7.55;;;;;;;5.55;66.41;101006.81;5038794;28;20017;-60
2021/05/09 03:38:23;;;;;;;16.58;7.20;;;;;;;5.59;66.38;101006.91;5038790;28;20065;-60
2021/05/09 03:40:48;;;;;;;15.70;7.18;;;;;;;5.62;66.57;101010.97;5038553;28;20029;-60
2021/05/09 03:43:14;;;;;;;14.05;7.07;;;;;;;5.64;66.80;101012.22;5038611;28;20048;-60
2021/05/09 03:45:39;;;;;;;15.00;7.45;;;;;;;5.68;66.82;101003.94;5038477;28;20364;-60
2021/05/09 03:48:05;;;;;;;14.45;8.48;;;;;;;5.73;66.27;101018.44;5038865;28;20057;-60
2021/05/09 03:50:30;;;;;;;17.63;8.45;;;;;;;5.78;65.87;101015.44;5038326;28;20037;-60
2021/05/09 03:52:55;;;;;;;23.75;9.18;;;;;;;5.85;65.58;101021.22;5038544;28;20021;-60
2021/05/09 03:55:21;;;;;;;18.65;8.68;;;;;;;5.94;65.20;101029.44;5038608;28;20040;-60
2021/05/09 03:57:46;;;;;;;18.40;9.65;;;;;;;6.01;65.28;101028.81;5038158;28;20440;-60
2021/05/09 04:00:12;;;;;;;23.02;11.43;;;;;;;6.06;65.01;101026.63;5038176;28;20075;-60
2021/05/09 04:02:37;;;;;;;57.05;23.02;;;;;;;6.14;64.98;101028.41;5020918;28;20437;-60
2021/05/09 04:05:03;;;;;;;112.03;45.78;;;;;;;6.21;64.83;101025.00;5038201;28;20021;-61
2021/05/09 04:07:28;;;;;;;64.18;30.90;;;;;;;6.30;64.50;101030.41;5038119;28;20041;-61
2021/05/09 04:09:54;;;;;;;34.97;18.55;;;;;;;6.39;64.08;101022.69;5037962;28;20009;-61
2021/05/09 04:12:19;;;;;;;30.30;15.40;;;;;;;6.47;63.88;101036.47;5038235;28;20321;-61
2021/05/09 04:14:44;;;;;;;20.63;10.52;;;;;;;6.58;63.65;101035.97;5037465;28;20032;-61
2021/05/09 04:17:10;;;;;;;19.95;9.40;;;;;;;6.69;62.93;101034.22;5038281;28;20320;-61
2021/05/09 04:19:35;;;;;;;16.63;8.30;;;;;;;6.79;62.53;101040.06;5038229;28;20144;-61
2021/05/09 04:22:01;;;;;;;15.30;8.00;;;;;;;6.91;62.30;101041.97;5038069;28;20063;-61
2021/05/09 04:24:27;;;;;;;15.32;8.13;;;;;;;7.04;61.75;101046.28;5038011;28;20052;-61
2021/05/09 04:26:53;;;;;;;20.55;8.52;;;;;;;7.14;61.30;101042.13;5037801;28;20053;-61
2021/05/09 04:29:18;;;;;;;19.02;9.15;;;;;;;7.26;61.23;101036.41;5037866;28;20048;-61
2021/05/09 04:31:44;;;;;;;17.13;8.63;;;;;;;7.38;60.68;101035.47;5037708;28;20055;-61
2021/05/09 04:34:09;;;;;;;17.88;8.27;;;;;;;7.50;60.51;101042.94;5037865;28;20052;-61
2021/05/09 04:36:34;;;;;;;17.75;8.00;;;;;;;7.61;60.30;101039.19;5037828;28;20037;-61
2021/05/09 04:38:59;;;;;;;16.80;7.18;;;;;;;7.75;59.69;101039.50;5037242;28;20321;-61
2021/05/09 04:41:25;;;;;;;22.00;8.80;;;;;;;7.88;59.49;101042.94;5037741;28;20064;-61
2021/05/09 04:43:50;;;;;;;20.73;10.20;;;;;;;7.99;59.17;101038.38;5037559;28;20032;-61
2021/05/09 04:46:16;;;;;;;23.08;12.25;;;;;;;8.09;58.63;101039.75;5037372;28;20017;-61
2021/05/09 04:48:41;;;;;;;28.77;14.85;;;;;;;8.19;58.04;101041.94;5037509;28;20101;-61
2021/05/09 04:51:06;;;;;;;22.98;10.88;;;;;;;8.31;58.02;101044.59;5037398;28;20108;-61
2021/05/09 04:53:36;;;;;;;16.90;8.82;;;;;;;8.44;57.97;101047.25;5037224;28;20100;-60
2021/05/09 04:56:03;;;;;;;15.77;8.38;;;;;;;8.54;58.36;101046.66;5037051;28;20037;-61
2021/05/09 04:58:30;;;;;;;18.63;8.32;;;;;;;8.65;57.71;101047.63;5037183;28;20061;-61
2021/05/09 05:01:02;;;;;;;15.63;7.75;;;;;;;8.75;57.27;101049.81;5037117;28;20104;-60
2021/05/09 05:03:29;;;;;;;16.00;8.00;;;;;;;8.84;57.51;101050.38;5023939;28;20023;-60
2021/05/09 05:05:55;;;;;;;15.45;7.35;;;;;;;8.91;57.71;101050.50;5037229;28;20095;-60
2021/05/09 05:08:21;;;;;;;19.17;8.20;;;;;;;9.02;57.76;101049.84;5036870;28;20417;-60
2021/05/09 05:10:49;;;;;;;19.55;7.32;;;;;;;9.13;57.98;101062.06;5037111;28;20060;-60
2021/05/09 05:13:25;;;;;;;16.95;8.68;;;;;;;9.24;57.63;101052.59;5036811;28;20056;-60
2021/05/09 05:15:53;;;;;;;24.15;10.00;;;;;;;9.37;56.58;101056.03;5036886;28;20324;-60
2021/05/09 05:18:19;;;;;;;19.77;9.30;;;;;;;9.48;56.80;101056.97;5037105;28;20154;-61
2021/05/09 05:20:45;;;;;;;20.45;9.38;;;;;;;9.62;56.80;101053.56;5036800;28;20033;-61
2021/05/09 05:23:11;;;;;;;19.95;9.88;;;;;;;9.72;56.63;101054.88;5036787;28;20025;-61
2021/05/09 05:25:37;;;;;;;18.52;8.40;;;;;;;9.79;57.70;101055.78;5036070;28;20160;-60
2021/05/09 05:28:04;;;;;;;20.95;9.65;;;;;;;9.91;57.34;101057.56;5036695;28;20713;-60
2021/05/09 05:30:30;;;;;;;19.23;8.40;;;;;;;10.07;56.50;101051.72;5036594;28;20025;-60
2021/05/09 05:32:57;;;;;;;16.27;8.38;;;;;;;10.18;56.19;101059.09;5036879;28;20028;-60
2021/05/09 05:35:24;;;;;;;19.00;8.88;;;;;;;10.30;55.83;101052.41;5019296;28;20049;-61
2021/05/09 05:37:51;;;;;;;23.45;9.68;;;;;;;10.43;55.36;101067.00;5036243;28;20028;-61
2021/05/09 05:40:16;;;;;;;22.52;9.40;;;;;;;10.57;55.36;101055.91;5036584;28;20025;-60
2021/05/09 05:42:42;;;;;;;23.55;10.30;;;;;;;10.67;55.24;101066.44;5036153;28;20021;-61
2021/05/09 05:45:07;;;;;;;18.50;8.85;;;;;;;10.82;54.12;101061.75;5036478;28;20059;-60
2021/05/09 05:47:33;;;;;;;18.13;8.35;;;;;;;10.95;54.51;101062.25;5036245;28;20075;-60
2021/05/09 05:49:59;;;;;;;15.82;7.55;;;;;;;11.06;53.29;101052.72;5031969;28;20029;-60
2021/05/09 05:52:24;;;;;;;16.50;7.25;;;;;;;11.22;52.24;101058.06;5029518;28;20417;-60
2021/05/09 05:54:50;;;;;;;22.55;8.93;;;;;;;11.38;52.45;101054.97;5033899;28;20037;-61
2021/05/09 05:57:15;;;;;;;19.50;7.63;;;;;;;11.48;52.92;101059.03;5034764;28;20429;-60
2021/05/09 05:59:40;;;;;;;20.73;7.95;;;;;;;11.59;52.62;101062.72;5035951;28;20104;-61
2021/05/09 06:02:06;;;;;;;30.35;8.63;;;;;;;11.72;51.77;101064.00;5036345;28;20321;-61
2021/05/09 06:04:31;;;;;;;21.08;8.23;;;;;;;11.85;52.57;101073.78;5036234;28;20022;-61
2021/05/09 06:06:57;;;;;;;21.75;7.25;;;;;;;12.00;52.03;101069.78;5036049;28;20025;-61
2021/05/09 06:09:22;;;;;;;21.13;7.50;;;;;;;12.12;51.02;101076.31;5035933;28;20013;-61
2021/05/09 06:11:47;;;;;;;21.75;6.60;;;;;;;12.24;50.08;101073.91;5035615;28;20017;-61
2021/05/09 06:14:13;;;;;;;24.80;7.15;;;;;;;12.38;48.34;101073.97;5036064;28;20372;-61
2021/05/09 06:16:38;;;;;;;20.58;7.10;;;;;;;12.50;49.62;101080.44;5035562;28;20063;-61
2021/05/09 06:19:04;;;;;;;18.25;6.97;;;;;;;12.63;48.67;101074.03;5018375;28;20675;-61
2021/05/09 06:21:29;;;;;;;22.63;6.57;;;;;;;12.77;49.83;101075.25;5035788;28;20060;-61
2021/05/09 06:23:54;;;;;;;19.90;7.18;;;;;;;12.86;47.47;101073.63;5035736;28;20408;-61
2021/05/09 06:26:20;;;;;;;25.58;7.32;;;;;;;12.98;47.61;101073.25;5035500;28;20498;-61
2021/05/09 06:28:45;;;;;;;20.67;6.70;;;;;;;13.07;46.59;101064.38;5035026;28;20021;-61
2021/05/09 06:31:10;;;;;;;20.55;6.45;;;;;;;13.17;45.62;101074.06;5034631;28;20320;-60
2021/05/09 06:33:35;;;;;;;17.50;7.00;;;;;;;13.23;46.08;101066.81;5014740;28;20029;-61
2021/05/09 06:36:01;;;;;;;23.30;7.75;;;;;;;13.26;45.62;101066.00;5024287;28;20025;-61
2021/05/09 06:38:27;;;;;;;16.98;7.55;;;;;;;13.39;46.42;101063.56;5024597;28;20429;-61
2021/05/09 06:40:52;;;;;;;21.45;7.95;;;;;;;13.46;45.96;101060.75;5031176;28;20320;-62
2021/05/09 06:43:18;;;;;;;18.40;6.53;;;;;;;13.59;45.78;101070.38;5035262;28;20029;-61
2021/05/09 06:45:44;;;;;;;22.38;7.85;;;;;;;13.66;45.42;101063.91;5033841;28;20151;-61
2021/05/09 06:48:11;;;;;;;21.52;7.10;;;;;;;13.79;45.06;101065.91;5035683;28;20021;-61
2021/05/09 06:50:36;;;;;;;21.60;7.07;;;;;;;13.91;46.13;101065.44;5035236;28;20031;-61
2021/05/09 06:53:03;;;;;;;25.95;7.85;;;;;;;14.00;45.18;101069.88;5035224;28;20021;-61
2021/05/09 06:55:29;;;;;;;18.75;7.47;;;;;;;14.04;44.49;101077.13;5035039;28;20056;-61
2021/05/09 06:57:55;;;;;;;20.73;8.38;;;;;;;14.16;43.94;101073.03;5034813;28;20417;-61
2021/05/09 07:00:21;;;;;;;21.33;8.05;;;;;;;14.21;44.64;101058.44;5035367;28;20026;-61
2021/05/09 07:02:49;;;;;;;25.58;7.05;;;;;;;14.28;44.64;101068.94;5031167;28;20075;-61
2021/05/09 07:05:15;;;;;;;27.02;8.38;;;;;;;14.41;45.29;101061.59;5034596;28;20051;-62
2021/05/09 07:07:51;;;;;;;21.08;7.00;;;;;;;14.51;43.59;101063.56;5030549;28;20412;-62
2021/05/09 07:10:18;;;;;;;19.60;6.78;;;;;;;14.60;43.79;101068.78;5030737;28;20053;-62
2021/05/09 07:12:43;;;;;;;18.13;6.90;;;;;;;14.67;42.70;101071.56;5032564;28;20344;-62
2021/05/09 07:15:10;;;;;;;24.17;8.10;;;;;;;14.69;43.14;101063.47;5023196;28;20029;-61
2021/05/09 07:17:36;;;;;;;23.17;7.65;;;;;;;14.81;42.59;101058.13;5032681;28;20032;-62
2021/05/09 07:20:03;;;;;;;21.52;7.10;;;;;;;14.93;42.54;101059.63;5034864;28;20026;-62
2021/05/09 07:22:33;;;;;;;23.42;7.35;;;;;;;14.98;41.39;101064.84;5034942;28;20077;-62
2021/05/09 07:24:58;;;;;;;23.10;6.30;;;;;;;15.00;41.27;101070.09;5034839;28;20021;-62
2021/05/09 07:27:23;;;;;;;22.75;6.47;;;;;;;15.05;41.24;101055.50;5035187;28;20100;-62
2021/05/09 07:29:49;;;;;;;18.65;6.72;;;;;;;15.07;39.61;101064.41;5033155;28;20406;-63
2021/05/09 07:32:14;;;;;;;20.02;6.60;;;;;;;15.07;40.15;101072.88;5034960;28;20298;-62
2021/05/09 07:34:39;;;;;;;23.98;7.43;;;;;;;15.11;41.48;101060.31;5034793;28;20083;-61
2021/05/09 07:37:05;;;;;;;24.00;6.18;;;;;;;15.20;39.28;101081.66;5033072;28;20013;-61
2021/05/09 07:39:30;;;;;;;20.33;6.00;;;;;;;15.24;41.16;101062.59;5020981;28;20064;-60
2021/05/09 07:41:55;;;;;;;16.33;6.20;;;;;;;15.32;40.17;101072.66;5034198;28;20432;-62
2021/05/09 07:44:21;;;;;;;18.70;6.60;;;;;;;15.33;40.18;101068.59;5031706;28;20425;-62
2021/05/09 07:46:46;;;;;;;16.85;5.90;;;;;;;15.34;39.51;101067.34;5016959;28;20017;-62
2021/05/09 07:49:12;;;;;;;17.20;6.40;;;;;;;15.40;40.52;101069.34;5016741;28;20021;-61
2021/05/09 07:51:37;;;;;;;21.58;6.53;;;;;;;15.45;40.04;101070.91;5033825;28;20405;-62
2021/05/09 07:54:03;;;;;;;18.75;6.18;;;;;;;15.53;39.78;101080.94;5038209;28;20029;-62
2021/05/09 07:56:28;;;;;;;19.95;6.10;;;;;;;15.57;39.79;101070.38;5038173;28;20048;-62
2021/05/09 07:58:53;;;;;;;32.40;8.00;;;;;;;15.59;40.37;101065.13;5037883;28;20409;-61
2021/05/09 08:01:19;;;;;;;17.58;6.18;;;;;;;15.66;38.38;101090.56;5038125;28;20053;-62
2021/05/09 08:03:44;;;;;;;24.23;6.35;;;;;;;15.65;38.79;101077.63;5038078;28;20037;-61
2021/05/09 08:06:09;;;;;;;19.17;6.38;;;;;;;15.72;39.61;101066.19;5037622;28;20412;-62
2021/05/09 08:08:36;;;;;;;16.48;6.72;;;;;;;15.80;38.74;101061.25;5031019;28;20025;-62
2021/05/09 08:11:01;;;;;;;22.30;7.35;;;;;;;15.80;38.92;101055.56;5038086;28;20013;-62
2021/05/09 08:13:27;;;;;;;18.52;6.88;;;;;;;15.87;40.21;101049.00;5038047;28;20036;-60
2021/05/09 08:15:52;;;;;;;87.85;10.45;;;;;;;15.97;38.78;101062.28;5037219;28;20111;-61
2021/05/09 08:18:22;;;;;;;22.77;6.03;;;;;;;15.95;38.35;101048.53;5031203;28;20039;-62
2021/05/09 08:20:47;;;;;;;20.38;5.97;;;;;;;16.05;38.63;101055.28;5031810;28;20401;-62
2021/05/09 08:23:13;;;;;;;20.00;6.18;;;;;;;16.15;36.94;101060.00;5036333;28;20021;-61
2021/05/09 08:25:38;;;;;;;23.30;6.03;;;;;;;16.15;38.11;101048.66;5037610;28;20030;-62
2021/05/09 08:28:04;;;;;;;17.10;5.55;;;;;;;16.27;38.05;101056.63;5038158;28;20026;-62
2021/05/09 08:30:29;;;;;;;17.73;5.40;;;;;;;16.41;38.95;101051.97;5037751;28;20037;-62
2021/05/09 08:32:54;;;;;;;17.38;5.43;;;;;;;16.47;37.70;101053.13;5037785;28;20026;-62
2021/05/09 08:35:20;;;;;;;18.13;6.18;;;;;;;16.47;36.72;101058.78;5037381;28;20078;-62
2021/05/09 08:37:46;;;;;;;21.10;6.75;;;;;;;16.38;38.41;101068.59;5033420;28;20110;-62
2021/05/09 08:40:16;;;;;;;14.95;5.80;;;;;;;16.38;37.47;101043.06;5028109;28;20036;-62
2021/05/09 08:42:48;;;;;;;17.13;6.22;;;;;;;16.48;37.55;101057.56;5033242;28;20026;-62
2021/05/09 08:45:14;;;;;;;16.23;5.28;;;;;;;16.49;35.68;101062.00;5037500;28;20100;-62
2021/05/09 08:47:40;;;;;;;17.52;5.60;;;;;;;16.50;36.32;101050.22;5037542;28;20144;-62
2021/05/09 08:50:21;;;;;;;16.67;5.97;;;;;;;16.51;36.17;101046.16;5035997;28;20024;-62
2021/05/09 08:52:48;;;;;;;17.48;5.78;;;;;;;16.60;36.48;101056.97;5035535;28;20317;-62
2021/05/09 08:55:21;;;;;;;19.80;6.15;;;;;;;16.63;35.72;101047.59;5035863;28;20336;-62
2021/05/09 08:57:47;;;;;;;16.63;6.03;;;;;;;16.62;36.49;101049.63;5036844;28;20305;-62
2021/05/09 09:00:14;;;;;;;12.82;5.47;;;;;;;16.69;37.11;101049.53;5034559;28;20026;-62
2021/05/09 09:02:41;;;;;;;19.55;6.07;;;;;;;16.80;37.71;101046.53;5036638;28;20036;-62
2021/05/09 09:05:08;;;;;;;18.65;5.40;;;;;;;16.91;37.95;101043.53;5035672;28;20053;-62
2021/05/09 09:07:44;;;;;;;18.00;5.55;;;;;;;16.91;36.92;101040.69;5037018;28;20029;-62
2021/05/09 09:10:10;;;;;;;16.42;5.55;;;;;;;17.08;35.61;101053.78;5037294;28;20096;-62
2021/05/09 09:12:37;;;;;;;20.42;6.68;;;;;;;17.09;36.19;101046.06;5036238;28;20112;-62
2021/05/09 09:15:03;;;;;;;18.42;6.15;;;;;;;17.06;37.49;101050.59;5036066;28;20064;-62
2021/05/09 09:17:28;;;;;;;15.73;5.03;;;;;;;17.02;35.55;101040.53;5016716;28;20420;-63
2021/05/09 09:20:00;;;;;;;13.82;4.80;;;;;;;17.07;35.52;101037.19;5033975;28;20116;-62
2021/05/09 09:22:27;;;;;;;16.42;5.45;;;;;;;17.16;36.10;101037.41;5034652;28;20440;-63
2021/05/09 09:25:07;;;;;;;16.80;5.38;;;;;;;17.25;34.95;101051.88;5034281;28;20294;-62
2021/05/09 09:27:32;;;;;;;15.38;5.60;;;;;;;17.27;34.71;101049.41;5032195;28;20294;-62
2021/05/09 09:30:03;;;;;;;16.75;5.40;;;;;;;17.37;34.69;101041.94;5036492;28;20021;-61
2021/05/09 09:32:28;;;;;;;18.85;4.57;;;;;;;17.40;34.60;101043.91;5036436;28;20044;-62
2021/05/09 09:34:53;;;;;;;13.90;4.47;;;;;;;17.46;33.90;101045.81;5036340;28;20104;-62
2021/05/09 09:37:20;;;;;;;17.77;5.65;;;;;;;17.50;35.68;101052.22;5032473;28;20053;-62
2021/05/09 09:40:00;;;;;;;19.30;5.30;;;;;;;17.59;35.10;101055.31;5036361;28;20021;-62
2021/05/09 09:42:41;;;;;;;16.95;5.57;;;;;;;17.57;34.81;101057.78;5036391;28;20021;-62
2021/05/09 09:45:15;;;;;;;13.98;4.63;;;;;;;17.59;33.76;101049.63;5036768;28;20067;-62
2021/05/09 09:47:52;;;;;;;19.27;5.80;;;;;;;17.68;32.48;101051.91;5035970;28;20030;-62
2021/05/09 09:50:41;;;;;;;14.50;5.43;;;;;;;17.67;32.98;101050.31;5036506;28;20025;-62
2021/05/09 09:53:25;;;;;;;14.98;5.35;;;;;;;17.64;33.60;101048.31;5036522;28;20017;-61
2021/05/09 09:56:06;;;;;;;14.25;4.72;;;;;;;17.66;32.69;101036.50;5036041;28;20059;-62
2021/05/09 09:58:40;;;;;;;17.00;5.75;;;;;;;17.71;34.10;101047.41;5035824;28;20092;-62
2021/05/09 10:01:07;;;;;;;17.08;4.80;;;;;;;17.80;34.04;101044.78;5030584;28;20344;-62
2021/05/09 10:03:33;;;;;;;19.00;5.32;;;;;;;17.86;33.36;101043.03;5036037;28;20442;-62
2021/05/09 10:05:59;;;;;;;14.50;4.85;;;;;;;17.89;34.40;101030.78;5036083;28;20033;-62
2021/05/09 10:08:28;;;;;;;20.98;5.65;;;;;;;17.95;33.22;101057.47;5034056;28;20017;-62
2021/05/09 10:10:54;;;;;;;20.02;7.15;;;;;;;17.96;33.40;101047.69;5034129;28;20382;-62
2021/05/09 10:13:21;;;;;;;17.38;5.30;;;;;;;17.98;34.29;101042.38;5033120;28;20434;-63
2021/05/09 10:15:47;;;;;;;18.98;4.75;;;;;;;18.01;34.42;101017.94;5034923;28;20055;-63
2021/05/09 10:18:13;;;;;;;17.30;5.47;;;;;;;18.00;35.00;101019.97;5033527;28;20349;-62
2021/05/09 10:20:40;;;;;;;18.40;6.13;;;;;;;18.14;33.09;101036.75;5027094;28;20038;-63
2021/05/09 10:23:06;;;;;;;15.48;4.93;;;;;;;18.22;33.06;101029.66;5032722;28;20056;-62
2021/05/09 10:25:54;;;;;;;12.63;5.03;;;;;;;18.21;32.70;101036.59;5035612;28;20496;-62
2021/05/09 10:28:24;;;;;;;16.15;4.97;;;;;;;18.27;31.82;101024.69;5035278;28;20025;-62
2021/05/09 10:30:57;;;;;;;18.83;5.40;;;;;;;18.27;32.39;101016.16;5035308;28;20104;-62
2021/05/09 10:33:38;;;;;;;13.35;4.65;;;;;;;18.27;32.29;101008.41;5024645;28;20076;-62
2021/05/09 10:36:37;;;;;;;14.88;4.97;;;;;;;18.29;31.80;101016.50;5035267;28;20087;-62
2021/05/09 10:39:08;;;;;;;13.15;4.45;;;;;;;18.30;32.55;101018.91;5031321;28;20059;-63
2021/05/09 10:41:53;;;;;;;13.13;4.47;;;;;;;18.36;32.32;101010.69;5016794;28;20033;-63
2021/05/09 10:44:37;;;;;;;15.93;5.18;;;;;;;18.41;32.29;100998.75;5017614;28;20118;-63
2021/05/09 10:47:05;;;;;;;16.17;4.65;;;;;;;18.48;32.31;100990.84;5031706;28;20025;-63
2021/05/09 10:49:31;;;;;;;10.55;4.28;;;;;;;18.58;32.55;101002.41;5028662;28;20037;-63
2021/05/09 10:51:56;;;;;;;15.98;4.72;;;;;;;18.63;32.26;101001.94;5016621;28;20025;-63
2021/05/09 10:54:26;;;;;;;18.13;4.80;;;;;;;18.71;32.75;101001.31;5030801;28;20482;-63
2021/05/09 10:56:54;;;;;;;13.80;4.07;;;;;;;18.76;31.48;101000.78;5032014;28;20096;-63
2021/05/09 10:59:20;;;;;;;13.07;3.90;;;;;;;18.79;30.93;101005.56;5030286;28;20083;-64
2021/05/09 11:02:05;;;;;;;11.98;3.45;;;;;;;18.79;32.18;101002.72;5031005;28;20026;-64
2021/05/09 11:04:47;;;;;;;13.48;4.47;;;;;;;18.78;31.14;101003.19;5030734;28;20092;-64
2021/05/09 11:07:43;;;;;;;13.52;4.30;;;;;;;18.85;30.77;100985.91;5029401;28;20420;-66
2021/05/09 11:10:29;;;;;;;14.70;4.65;;;;;;;18.88;32.43;100990.72;5024729;28;20087;-64
2021/05/09 11:13:02;;;;;;;11.85;4.30;;;;;;;18.97;32.14;100995.78;5031109;28;20171;-64
2021/05/09 11:15:27;;;;;;;15.27;4.13;;;;;;;18.97;32.20;100976.66;5033537;28;20309;-64
2021/05/09 11:17:54;;;;;;;11.95;4.20;;;;;;;19.06;31.35;100978.88;5030723;28;20025;-64
2021/05/09 11:20:19;;;;;;;15.73;3.88;;;;;;;19.02;31.14;100981.00;5028847;28;20484;-65
2021/05/09 11:22:45;;;;;;;11.73;4.15;;;;;;;19.11;31.00;100970.56;5033946;28;20108;-64